createdAt,value
2019-05-03T00:01:56.698Z,19.77
2019-05-03T00:04:28.689Z,18.50
2019-05-03T00:07:03.783Z,19.93
2019-05-03T00:09:36.316Z,19.10
2019-05-03T00:12:12.509Z,20.10
2019-05-03T00:14:45.339Z,19.70
2019-05-03T00:17:17.351Z,19.27
2019-05-03T00:19:48.433Z,20.97
2019-05-03T00:22:19.343Z,21.37
2019-05-03T00:25:04.632Z,19.97
2019-05-03T00:27:22.833Z,20.97
2019-05-03T00:29:53.583Z,21.73
2019-05-03T00:32:26.143Z,19.57
2019-05-03T00:34:58.863Z,19.80
2019-05-03T00:37:32.731Z,20.43
2019-05-03T00:40:06.851Z,20.70
2019-05-03T00:42:38.144Z,22.50
2019-05-03T00:45:12.596Z,22.17
2019-05-03T00:47:43.283Z,22.03
2019-05-03T00:50:14.843Z,21.73
2019-05-03T00:52:45.737Z,21.57
2019-05-03T00:55:19.259Z,21.07
2019-05-03T00:57:49.761Z,23.40
2019-05-03T01:00:21.761Z,21.67
2019-05-03T01:02:53.262Z,22.97
2019-05-03T01:05:24.497Z,21.03
2019-05-03T01:07:56.301Z,21.43
2019-05-03T01:10:27.276Z,20.87
2019-05-03T01:12:58.997Z,20.37
2019-05-03T01:15:46.456Z,21.03
2019-05-03T01:18:21.773Z,21.70
2019-05-03T01:20:53.243Z,22.37
2019-05-03T01:23:24.764Z,24.47
2019-05-03T01:25:56.223Z,23.43
2019-05-03T01:28:27.203Z,24.57
2019-05-03T01:30:59.103Z,23.47
2019-05-03T01:33:32.001Z,25.87
2019-05-03T01:36:02.866Z,24.60
2019-05-03T01:38:34.579Z,23.13
2019-05-03T01:41:05.309Z,25.60
2019-05-03T01:43:36.463Z,26.60
2019-05-03T01:46:07.028Z,27.37
2019-05-03T01:48:52.989Z,27.33
2019-05-03T01:51:43.257Z,27.10
2019-05-03T01:54:14.589Z,28.60
2019-05-03T01:56:56.861Z,28.17
2019-05-03T01:59:19.157Z,30.07
2019-05-03T02:02:09.858Z,29.07
2019-05-03T02:04:45.369Z,28.60
2019-05-03T02:07:16.493Z,27.93
2019-05-03T02:09:48.241Z,26.87
2019-05-03T02:12:22.054Z,27.77
2019-05-03T02:14:53.348Z,26.60
2019-05-03T02:17:25.119Z,26.37
2019-05-03T02:19:56.457Z,26.90
2019-05-03T02:22:27.306Z,26.83
2019-05-03T02:24:58.642Z,27.80
2019-05-03T02:27:29.986Z,27.80
2019-05-03T02:30:02.972Z,29.30
2019-05-03T02:32:34.316Z,25.93
2019-05-03T02:35:07.429Z,27.37
2019-05-03T02:37:40.284Z,27.60
2019-05-03T02:40:13.029Z,27.13
2019-05-03T02:42:46.976Z,26.10
2019-05-03T02:45:25.854Z,26.73
2019-05-03T02:48:05.979Z,27.80
2019-05-03T02:50:37.606Z,27.07
2019-05-03T02:53:09.137Z,25.57
2019-05-03T02:55:39.814Z,27.20
2019-05-03T02:58:10.444Z,28.50
2019-05-03T03:01:02.174Z,29.83
2019-05-03T03:03:36.251Z,28.13
2019-05-03T03:06:08.203Z,28.93
2019-05-03T03:08:41.170Z,26.53
2019-05-03T03:11:15.405Z,28.67
2019-05-03T03:13:48.007Z,26.80
2019-05-03T03:16:20.838Z,26.57
2019-05-03T03:18:55.958Z,26.80
2019-05-03T03:21:36.113Z,26.87
2019-05-03T03:24:18.458Z,26.47
2019-05-03T03:26:52.069Z,27.30
2019-05-03T03:29:27.483Z,26.50
2019-05-03T03:32:20.950Z,24.43
2019-05-03T03:35:20.778Z,26.00
2019-05-03T03:37:49.260Z,24.33
2019-05-03T03:40:21.235Z,25.50
2019-05-03T03:42:55.694Z,24.57
2019-05-03T03:45:26.172Z,24.83
2019-05-03T03:47:58.286Z,23.97
2019-05-03T03:50:32.420Z,22.97
2019-05-03T03:53:06.863Z,23.13
2019-05-03T03:55:40.497Z,23.43
2019-05-03T03:58:15.980Z,24.03
2019-05-03T04:00:46.449Z,22.63
2019-05-03T04:03:18.088Z,22.43
2019-05-03T04:05:49.571Z,22.43
2019-05-03T04:08:20.598Z,21.80
2019-05-03T04:10:52.173Z,22.67
2019-05-03T04:13:25.524Z,23.07
2019-05-03T04:16:07.754Z,21.10
2019-05-03T04:18:58.182Z,21.87
2019-05-03T04:21:29.918Z,22.23
2019-05-03T04:24:01.582Z,21.00
2019-05-03T04:26:32.727Z,21.40
2019-05-03T04:29:05.498Z,21.23
2019-05-03T04:31:37.254Z,21.60
2019-05-03T04:34:08.864Z,21.30
2019-05-03T04:36:40.419Z,22.00
2019-05-03T04:39:17.050Z,20.83
2019-05-03T04:41:45.465Z,21.30
2019-05-03T04:44:16.167Z,21.70
2019-05-03T04:46:46.938Z,21.10
2019-05-03T04:49:18.374Z,21.13
2019-05-03T04:51:49.462Z,20.70
2019-05-03T04:54:25.825Z,20.57
2019-05-03T04:56:57.539Z,20.07
2019-05-03T04:59:29.074Z,19.30
2019-05-03T05:01:59.710Z,17.97
2019-05-03T05:04:30.236Z,16.60
2019-05-03T05:07:01.999Z,17.77
2019-05-03T05:09:34.956Z,15.63
2019-05-03T05:12:06.545Z,14.57
2019-05-03T05:14:40.514Z,15.03
2019-05-03T05:17:12.881Z,12.37
2019-05-03T05:20:05.574Z,11.93
2019-05-03T05:22:37.015Z,11.30
2019-05-03T05:25:12.191Z,11.13
2019-05-03T05:28:01.501Z,10.10
2019-05-03T05:30:35.176Z,8.53
2019-05-03T05:33:08.006Z,7.03
2019-05-03T05:35:38.643Z,6.47
2019-05-03T05:38:09.974Z,6.40
2019-05-03T05:40:41.458Z,5.50
2019-05-03T05:43:12.670Z,4.27
2019-05-03T05:45:44.909Z,4.50
2019-05-03T05:48:20.548Z,4.40
2019-05-03T05:50:52.258Z,5.17
2019-05-03T05:53:25.408Z,4.60
2019-05-03T05:56:15.758Z,4.10
2019-05-03T05:58:55.366Z,3.77
2019-05-03T06:01:30.188Z,3.23
2019-05-03T06:04:00.864Z,2.93
2019-05-03T06:06:50.494Z,2.77
2019-05-03T06:09:36.467Z,2.97
2019-05-03T06:12:15.218Z,2.80
2019-05-03T06:14:50.655Z,3.10
2019-05-03T06:17:34.721Z,2.70
2019-05-03T06:20:15.678Z,1.80
2019-05-03T06:22:56.431Z,1.83
2019-05-03T06:25:37.162Z,1.60
2019-05-03T06:31:00.327Z,1.50
2019-05-03T06:33:32.140Z,1.30
2019-05-03T06:36:04.972Z,1.57
2019-05-03T06:38:38.744Z,1.47
2019-05-03T06:41:09.598Z,1.63
2019-05-03T06:43:45.106Z,1.50
2019-05-03T06:46:15.803Z,1.77
2019-05-03T06:48:45.494Z,1.90
2019-05-03T06:51:20.030Z,2.10
2019-05-03T06:53:50.659Z,2.23
2019-05-03T06:56:25.025Z,2.20
2019-05-03T06:58:58.720Z,3.43
2019-05-03T07:01:42.117Z,3.00
2019-05-03T07:04:32.468Z,2.93
2019-05-03T07:07:17.988Z,2.70
2019-05-03T07:09:56.838Z,2.57
2019-05-03T07:12:29.848Z,2.67
2019-05-03T07:15:02.746Z,2.60
2019-05-03T07:17:37.257Z,2.73
2019-05-03T07:20:10.966Z,2.60
2019-05-03T07:22:44.469Z,3.47
2019-05-03T07:25:16.835Z,3.73
2019-05-03T07:27:50.201Z,5.90
2019-05-03T07:30:21.986Z,5.23
2019-05-03T07:32:59.027Z,5.00
2019-05-03T07:35:32.778Z,6.60
2019-05-03T07:38:05.444Z,6.10
2019-05-03T07:40:36.225Z,5.43
2019-05-03T07:43:07.258Z,4.43
2019-05-03T07:45:40.688Z,4.43
2019-05-03T07:48:12.123Z,3.30
2019-05-03T07:50:44.750Z,3.70
2019-05-03T07:53:15.597Z,4.93
2019-05-03T07:56:05.332Z,4.90
2019-05-03T07:58:37.879Z,3.80
2019-05-03T08:01:15.015Z,3.53
2019-05-03T08:03:46.359Z,3.40
2019-05-03T08:06:17.437Z,5.60
2019-05-03T08:08:48.623Z,3.70
2019-05-03T08:11:20.363Z,3.20
2019-05-03T08:13:51.883Z,3.50
2019-05-03T08:16:25.073Z,2.97
2019-05-03T08:18:56.027Z,3.10
2019-05-03T08:21:38.775Z,4.20
2019-05-03T08:24:08.659Z,7.73
2019-05-03T08:26:39.583Z,2.80
2019-05-03T08:32:10.984Z,2.57
2019-05-03T08:34:47.553Z,3.33
2019-05-03T08:37:28.399Z,3.50
2019-05-03T08:39:59.355Z,2.73
2019-05-03T08:42:30.423Z,2.73
2019-05-03T08:45:01.366Z,2.73
2019-05-03T08:47:34.390Z,2.60
2019-05-03T08:50:06.404Z,2.37
2019-05-03T08:52:37.226Z,2.73
2019-05-03T08:55:08.993Z,3.80
2019-05-03T08:57:39.964Z,4.10
2019-05-03T09:00:15.918Z,2.77
2019-05-03T09:02:47.443Z,2.50
2019-05-03T09:05:19.320Z,2.70
2019-05-03T09:07:50.849Z,2.57
2019-05-03T09:10:27.474Z,2.40
2019-05-03T09:13:10.485Z,2.73
2019-05-03T09:15:42.078Z,2.43
2019-05-03T09:18:16.756Z,2.47
2019-05-03T09:20:45.823Z,2.67
2019-05-03T09:23:17.404Z,2.90
2019-05-03T09:25:48.296Z,2.90
2019-05-03T09:28:19.354Z,2.00
2019-05-03T09:30:50.437Z,2.70
2019-05-03T09:33:21.464Z,2.93
2019-05-03T09:35:52.372Z,2.20
2019-05-03T09:38:25.497Z,2.07
2019-05-03T09:41:00.234Z,4.37
2019-05-03T09:43:32.331Z,4.53
2019-05-03T09:46:05.019Z,5.03
2019-05-03T09:48:36.059Z,2.53
2019-05-03T09:51:08.196Z,3.20
2019-05-03T09:53:49.229Z,3.20
2019-05-03T09:56:46.026Z,3.70
2019-05-03T09:59:12.161Z,3.87
2019-05-03T10:01:45.451Z,3.00
2019-05-03T10:04:17.984Z,2.97
2019-05-03T10:06:48.863Z,2.80
2019-05-03T10:09:20.033Z,3.00
2019-05-03T10:11:51.732Z,3.40
2019-05-03T10:14:22.843Z,2.17
2019-05-03T10:17:08.898Z,2.07
2019-05-03T10:19:40.453Z,2.57
2019-05-03T10:22:11.453Z,2.93
2019-05-03T10:24:42.366Z,2.93
2019-05-03T10:27:15.113Z,2.37
2019-05-03T10:29:45.679Z,3.60
2019-05-03T10:32:27.313Z,2.63
2019-05-03T10:35:02.186Z,2.67
2019-05-03T10:37:35.867Z,3.63
2019-05-03T10:40:08.284Z,4.20
2019-05-03T10:42:39.193Z,2.40
2019-05-03T10:45:10.464Z,2.30
2019-05-03T10:47:41.443Z,2.13
2019-05-03T10:50:12.410Z,2.23
2019-05-03T10:55:21.816Z,2.43
2019-05-03T10:58:09.952Z,3.50
2019-05-03T11:00:49.611Z,3.20
2019-05-03T11:03:16.208Z,3.47
2019-05-03T11:05:47.170Z,3.53
2019-05-03T11:08:19.086Z,5.10
2019-05-03T11:10:50.281Z,3.43
2019-05-03T11:13:21.197Z,3.03
2019-05-03T11:15:52.222Z,2.90
2019-05-03T11:18:25.230Z,2.40
2019-05-03T11:20:56.633Z,1.57
2019-05-03T11:23:27.648Z,2.37
2019-05-03T11:25:59.517Z,3.17
2019-05-03T11:28:31.207Z,3.13
2019-05-03T11:31:24.826Z,2.50
2019-05-03T11:33:59.719Z,2.42
2019-05-03T11:36:42.331Z,4.00
2019-05-03T11:39:14.476Z,3.17
2019-05-03T11:41:48.648Z,3.60
2019-05-03T11:44:38.168Z,3.20
2019-05-03T11:47:09.766Z,4.53
2019-05-03T11:49:40.658Z,3.20
2019-05-03T11:52:12.488Z,2.73
2019-05-03T11:54:45.263Z,2.83
2019-05-03T11:57:26.785Z,5.50
2019-05-03T11:59:58.780Z,4.87
2019-05-03T12:02:49.786Z,3.17
2019-05-03T12:05:25.020Z,3.33
2019-05-03T12:07:56.813Z,3.70
2019-05-03T12:10:48.459Z,2.07
2019-05-03T12:13:08.890Z,15.17
2019-05-03T12:15:39.732Z,11.43
2019-05-03T12:18:11.362Z,9.37
2019-05-03T12:20:44.289Z,4.33
2019-05-03T12:23:16.814Z,2.80
2019-05-03T12:25:49.682Z,3.17
2019-05-03T12:28:20.855Z,10.70
2019-05-03T12:30:51.489Z,8.00
2019-05-03T12:33:25.821Z,2.70
2019-05-03T12:35:56.279Z,2.60
2019-05-03T12:38:27.482Z,2.27
2019-05-03T12:40:58.554Z,2.87
2019-05-03T12:43:29.230Z,3.60
2019-05-03T12:46:00.762Z,3.53
2019-05-03T12:48:31.471Z,2.10
2019-05-03T12:51:02.568Z,4.10
2019-05-03T12:53:35.353Z,3.57
2019-05-03T12:56:11.164Z,2.73
2019-05-03T12:58:58.141Z,1.97
2019-05-03T13:01:48.084Z,2.30
2019-05-03T13:04:24.954Z,2.60
2019-05-03T13:07:05.325Z,2.30
2019-05-03T13:09:35.808Z,1.67
2019-05-03T13:12:09.569Z,2.93
2019-05-03T13:14:40.130Z,2.03
2019-05-03T13:17:16.223Z,2.47
2019-05-03T13:19:46.909Z,1.90
2019-05-03T13:22:18.479Z,3.30
2019-05-03T13:27:39.486Z,1.73
2019-05-03T13:30:15.786Z,1.67
2019-05-03T13:32:46.659Z,2.47
2019-05-03T13:35:17.633Z,1.60
2019-05-03T13:37:49.723Z,2.53
2019-05-03T13:40:20.795Z,1.80
2019-05-03T13:43:01.715Z,2.53
2019-05-03T13:45:26.694Z,2.77
2019-05-03T13:47:58.092Z,3.23
2019-05-03T13:50:31.491Z,2.57
2019-05-03T13:53:04.849Z,3.13
2019-05-03T13:55:35.858Z,3.30
2019-05-03T13:58:07.106Z,8.53
2019-05-03T14:00:38.102Z,6.93
2019-05-03T14:03:12.426Z,4.33
2019-05-03T14:05:44.591Z,3.03
2019-05-03T14:08:20.122Z,3.57
2019-05-03T14:10:55.983Z,2.20
2019-05-03T14:13:35.983Z,2.53
2019-05-03T14:16:08.641Z,2.10
2019-05-03T14:18:41.405Z,1.67
2019-05-03T14:21:20.704Z,2.10
2019-05-03T14:24:15.629Z,1.57
2019-05-03T14:26:46.387Z,1.60
2019-05-03T14:29:18.524Z,1.20
2019-05-03T14:31:50.800Z,1.60
2019-05-03T14:34:21.557Z,1.70
2019-05-03T14:36:55.470Z,2.13
2019-05-03T14:39:27.218Z,1.50
2019-05-03T14:42:01.410Z,2.13
2019-05-03T14:44:32.292Z,1.83
2019-05-03T14:47:05.737Z,1.73
2019-05-03T14:49:39.026Z,2.03
2019-05-03T14:52:09.836Z,2.57
2019-05-03T14:54:42.777Z,2.80
2019-05-03T14:57:34.990Z,1.70
2019-05-03T15:00:27.276Z,1.40
2019-05-03T15:03:07.647Z,1.20
2019-05-03T15:05:46.076Z,2.80
2019-05-03T15:08:17.764Z,3.03
2019-05-03T15:10:48.893Z,2.93
2019-05-03T15:13:20.281Z,2.40
2019-05-03T15:15:50.924Z,2.37
2019-05-03T15:18:21.740Z,1.90
2019-05-03T15:20:52.183Z,1.80
2019-05-03T15:23:25.455Z,2.00
2019-05-03T15:25:55.971Z,2.60
2019-05-03T15:28:27.628Z,4.43
2019-05-03T15:30:59.522Z,3.83
2019-05-03T15:33:30.171Z,2.57
2019-05-03T15:36:06.785Z,3.40
2019-05-03T15:38:38.676Z,4.20
2019-05-03T15:41:10.486Z,3.27
2019-05-03T15:43:54.755Z,2.80
2019-05-03T15:46:45.142Z,2.50
2019-05-03T15:49:19.256Z,4.00
2019-05-03T15:51:50.711Z,2.10
2019-05-03T15:54:24.578Z,2.30
2019-05-03T15:56:56.784Z,3.20
2019-05-03T15:59:27.643Z,3.00
2019-05-03T16:01:58.331Z,4.20
2019-05-03T16:04:32.575Z,6.40
2019-05-03T16:07:06.159Z,3.73
2019-05-03T16:09:39.925Z,3.10
2019-05-03T16:12:11.723Z,3.03
2019-05-03T16:14:44.571Z,2.20
2019-05-03T16:17:17.475Z,3.00
2019-05-03T16:19:53.051Z,3.30
2019-05-03T16:22:25.047Z,2.40
2019-05-03T16:24:59.511Z,2.43
2019-05-03T16:27:52.551Z,2.63
2019-05-03T16:30:32.253Z,2.40
2019-05-03T16:33:04.718Z,3.10
2019-05-03T16:35:37.776Z,3.10
2019-05-03T16:38:07.923Z,3.30
2019-05-03T16:40:38.738Z,3.30
2019-05-03T16:43:10.936Z,4.20
2019-05-03T16:45:44.452Z,3.93
2019-05-03T16:48:18.151Z,4.10
2019-05-03T16:50:53.323Z,5.40
2019-05-03T16:53:27.289Z,3.43
2019-05-03T16:55:58.198Z,3.97
2019-05-03T16:58:30.773Z,6.07
2019-05-03T17:01:05.855Z,2.80
2019-05-03T17:03:47.337Z,3.73
2019-05-03T17:06:26.855Z,3.10
2019-05-03T17:09:19.640Z,9.70
2019-05-03T17:12:14.964Z,11.00
2019-05-03T17:14:49.568Z,4.60
2019-05-03T17:17:45.111Z,4.90
2019-05-03T17:20:21.392Z,3.27
2019-05-03T17:22:55.396Z,4.20
2019-05-03T17:25:26.587Z,2.77
2019-05-03T17:28:00.116Z,3.07
2019-05-03T17:30:37.317Z,3.30
2019-05-03T17:33:10.284Z,3.07
2019-05-03T17:35:45.317Z,3.03
2019-05-03T17:38:19.891Z,2.40
2019-05-03T17:41:09.860Z,3.67
2019-05-03T17:43:51.465Z,2.73
2019-05-03T17:46:28.640Z,3.80
2019-05-03T17:49:05.417Z,6.23
2019-05-03T17:51:46.297Z,4.40
2019-05-03T17:54:42.260Z,3.50
2019-05-03T17:57:24.363Z,5.80
2019-05-03T18:00:10.437Z,6.20
2019-05-03T18:02:46.997Z,7.70
2019-05-03T18:05:39.348Z,6.43
2019-05-03T18:08:26.188Z,4.23
2019-05-03T18:11:08.425Z,6.10
2019-05-03T18:13:40.244Z,6.87
2019-05-03T18:16:11.599Z,7.07
2019-05-03T18:18:42.648Z,6.87
2019-05-03T18:21:20.928Z,8.37
2019-05-03T18:24:01.209Z,7.37
2019-05-03T18:26:35.494Z,7.50
2019-05-03T18:29:07.035Z,5.83
2019-05-03T18:31:39.611Z,6.70
2019-05-03T18:34:21.557Z,9.30
2019-05-03T18:36:50.551Z,9.70
2019-05-03T18:39:25.246Z,8.93
2019-05-03T18:41:56.602Z,12.23
2019-05-03T18:44:55.110Z,11.03
2019-05-03T18:47:26.578Z,10.47
2019-05-03T18:50:00.913Z,10.57
2019-05-03T18:52:37.258Z,8.10
2019-05-03T18:55:09.509Z,6.03
2019-05-03T18:57:42.243Z,6.27
2019-05-03T19:00:15.323Z,7.70
2019-05-03T19:02:48.639Z,8.77
2019-05-03T19:05:27.901Z,9.53
2019-05-03T19:08:21.695Z,10.00
2019-05-03T19:11:08.624Z,10.80
2019-05-03T19:13:48.286Z,10.53
2019-05-03T19:16:45.557Z,9.63
2019-05-03T19:19:24.652Z,9.10
2019-05-03T19:21:56.100Z,9.50
2019-05-03T19:24:30.977Z,10.47
2019-05-03T19:27:17.282Z,9.40
2019-05-03T19:29:55.473Z,9.90
2019-05-03T19:32:28.362Z,10.67
2019-05-03T19:35:00.129Z,12.63
2019-05-03T19:37:35.590Z,12.37
2019-05-03T19:40:23.209Z,11.03
2019-05-03T19:42:55.759Z,8.40
2019-05-03T19:45:31.123Z,11.33
2019-05-03T19:48:06.226Z,13.33
2019-05-03T19:50:41.911Z,13.78
2019-05-03T19:53:37.843Z,16.20
2019-05-03T19:56:11.767Z,15.20
2019-05-03T19:58:46.772Z,19.57
2019-05-03T20:01:43.202Z,19.80
2019-05-03T20:04:34.389Z,24.93
2019-05-03T20:07:20.738Z,49.57
2019-05-03T20:09:54.386Z,44.60
2019-05-03T20:12:38.118Z,28.23
2019-05-03T20:15:14.735Z,24.47
2019-05-03T20:17:56.673Z,19.37
2019-05-03T20:20:20.172Z,17.03
2019-05-03T20:22:59.079Z,13.20
2019-05-03T20:25:35.566Z,14.40
2019-05-03T20:28:11.028Z,15.17
2019-05-03T20:30:45.285Z,11.73
2019-05-03T20:33:24.208Z,10.37
2019-05-03T20:35:56.283Z,9.70
2019-05-03T20:38:27.311Z,10.83
2019-05-03T20:41:02.281Z,11.60
2019-05-03T20:43:54.920Z,14.77
2019-05-03T20:46:39.328Z,48.93
2019-05-03T20:49:17.791Z,46.63
2019-05-03T20:51:54.417Z,29.70
2019-05-03T20:54:27.279Z,24.40
2019-05-03T20:57:08.461Z,19.37
2019-05-03T20:59:45.325Z,16.13
2019-05-03T21:02:15.321Z,13.53
2019-05-03T21:04:51.731Z,12.67
2019-05-03T21:07:26.313Z,12.73
2019-05-03T21:09:57.320Z,12.00
2019-05-03T21:12:31.528Z,11.83
2019-05-03T21:15:05.357Z,11.10
2019-05-03T21:17:45.060Z,10.37
2019-05-03T21:20:36.224Z,11.57
2019-05-03T21:23:09.479Z,11.73
2019-05-03T21:26:03.632Z,8.50
2019-05-03T21:28:18.978Z,7.43
2019-05-03T21:30:50.971Z,11.80
2019-05-03T21:33:23.232Z,10.63
2019-05-03T21:35:55.663Z,8.63
2019-05-03T21:38:26.459Z,9.43
2019-05-03T21:40:57.681Z,9.27
2019-05-03T21:43:29.148Z,11.37
2019-05-03T21:46:08.746Z,10.97
2019-05-03T21:48:58.491Z,10.23
2019-05-03T21:51:29.862Z,9.77
2019-05-03T21:54:01.092Z,11.30
2019-05-03T21:56:32.544Z,11.30
2019-05-03T21:59:05.384Z,9.47
2019-05-03T22:01:39.129Z,9.40
2019-05-03T22:04:10.991Z,7.13
2019-05-03T22:06:45.505Z,7.83
2019-05-03T22:09:17.173Z,7.53
2019-05-03T22:11:47.769Z,6.90
2019-05-03T22:14:25.426Z,7.70
2019-05-03T22:17:15.091Z,8.50
2019-05-03T22:19:48.371Z,7.50
2019-05-03T22:22:38.422Z,8.13
2019-05-03T22:25:10.197Z,7.73
2019-05-03T22:27:43.030Z,9.10
2019-05-03T22:30:15.302Z,9.07
2019-05-03T22:32:46.072Z,8.17
2019-05-03T22:35:17.683Z,7.53
2019-05-03T22:37:49.647Z,7.73
2019-05-03T22:40:20.882Z,8.77
2019-05-03T22:42:51.829Z,8.80
2019-05-03T22:45:22.417Z,9.60
2019-05-03T22:47:54.985Z,10.87
2019-05-03T22:50:25.800Z,13.40
2019-05-03T22:52:57.005Z,13.30
2019-05-03T22:55:28.495Z,13.63
2019-05-03T22:58:00.072Z,12.50
2019-05-03T23:00:31.826Z,13.63
2019-05-03T23:03:03.572Z,13.57
2019-05-03T23:05:37.314Z,13.40
2019-05-03T23:08:08.775Z,12.70
2019-05-03T23:10:39.734Z,13.17
2019-05-03T23:13:11.289Z,10.30
2019-05-03T23:15:42.891Z,8.93
2019-05-03T23:18:14.272Z,9.37
2019-05-03T23:20:52.779Z,8.40
2019-05-03T23:23:43.070Z,7.67
2019-05-03T23:26:14.824Z,7.10
2019-05-03T23:28:47.505Z,9.13
2019-05-03T23:31:18.851Z,11.50
2019-05-03T23:33:50.428Z,12.13
2019-05-03T23:36:32.852Z,11.60
2019-05-03T23:38:54.778Z,11.73
2019-05-03T23:41:25.741Z,9.97
2019-05-03T23:43:56.860Z,10.00
2019-05-03T23:46:34.800Z,9.17
2019-05-03T23:49:06.707Z,9.07
2019-05-03T23:51:56.290Z,9.80
2019-05-03T23:54:28.424Z,9.60
2019-05-03T23:56:59.349Z,12.83
2019-05-03T23:59:30.689Z,10.43
